createdAt,value
2016-11-29T00:00:54.738Z,102119
2016-11-29T00:01:54.807Z,102128
2016-11-29T00:02:56.178Z,102131
2016-11-29T00:03:54.822Z,102132
2016-11-29T00:04:56.196Z,102125
2016-11-29T00:05:54.928Z,102135
2016-11-29T00:06:56.370Z,102129
2016-11-29T00:07:55.035Z,102133
2016-11-29T00:08:56.411Z,102123
2016-11-29T00:09:56.428Z,102126
2016-11-29T00:10:56.485Z,102128
2016-11-29T00:11:55.236Z,102120
2016-11-29T00:12:56.724Z,102121
2016-11-29T00:13:56.663Z,102121
2016-11-29T00:14:55.407Z,102120
2016-11-29T00:15:56.692Z,102127
2016-11-29T00:16:56.730Z,102128
2016-11-29T00:17:56.791Z,102126
2016-11-29T00:18:56.849Z,102126
2016-11-29T00:19:55.523Z,102120
2016-11-29T00:20:55.571Z,102119
2016-11-29T00:21:55.718Z,102127
2016-11-29T00:22:57.087Z,102123
2016-11-29T00:23:55.817Z,102128
2016-11-29T00:24:57.188Z,102122
2016-11-29T00:25:57.216Z,102122
2016-11-29T00:26:55.965Z,102120
2016-11-29T00:27:57.289Z,102124
2016-11-29T00:28:57.426Z,102127
2016-11-29T00:29:57.525Z,102125
2016-11-29T00:30:57.608Z,102121
2016-11-29T00:31:56.341Z,102118
2016-11-29T00:32:56.361Z,102121
2016-11-29T00:33:57.803Z,102125
2016-11-29T00:34:57.823Z,102125
2016-11-29T00:35:57.926Z,102124
2016-11-29T00:36:56.520Z,102124
2016-11-29T00:37:57.995Z,102123
2016-11-29T00:38:58.030Z,102125
2016-11-29T00:39:58.112Z,102123
2016-11-29T00:40:56.830Z,102123
2016-11-29T00:41:56.816Z,102125
2016-11-29T00:42:58.256Z,102119
2016-11-29T00:43:58.354Z,102125
2016-11-29T00:44:56.955Z,102123
2016-11-29T00:45:57.027Z,102123
2016-11-29T00:46:57.087Z,102115
2016-11-29T00:47:57.180Z,102121
2016-11-29T00:48:58.576Z,102120
2016-11-29T00:49:58.655Z,102122
2016-11-29T00:50:58.684Z,102121
2016-11-29T00:51:58.801Z,102116
2016-11-29T00:52:58.874Z,102120
2016-11-29T00:53:58.888Z,102124
2016-11-29T00:54:59.021Z,102123
2016-11-29T00:55:57.756Z,102118
2016-11-29T00:56:59.076Z,102123
2016-11-29T00:57:57.777Z,102126
2016-11-29T00:58:57.857Z,102125
2016-11-29T00:59:59.253Z,102114
2016-11-29T01:00:59.216Z,102120
2016-11-29T01:01:59.230Z,102120
2016-11-29T01:02:59.317Z,102114
2016-11-29T01:03:59.351Z,102126
2016-11-29T01:04:58.022Z,102121
2016-11-29T01:05:58.058Z,102129
2016-11-29T01:06:58.082Z,102132
2016-11-29T01:07:59.528Z,102122
2016-11-29T01:08:59.612Z,102121
2016-11-29T01:09:58.332Z,102126
2016-11-29T01:10:58.474Z,102124
2016-11-29T01:11:58.500Z,102120
2016-11-29T01:12:59.922Z,102120
2016-11-29T01:14:00.009Z,102121
2016-11-29T01:14:58.750Z,102119
2016-11-29T01:16:00.123Z,102120
2016-11-29T01:16:58.799Z,102119
2016-11-29T01:18:00.161Z,102124
2016-11-29T01:19:00.180Z,102127
2016-11-29T01:20:00.276Z,102124
2016-11-29T01:21:00.222Z,102119
2016-11-29T01:21:58.956Z,102125
2016-11-29T01:23:00.380Z,102121
2016-11-29T01:24:00.462Z,102115
2016-11-29T01:24:59.158Z,102119
2016-11-29T01:25:59.175Z,102118
2016-11-29T01:26:59.284Z,102112
2016-11-29T01:27:59.381Z,102115
2016-11-29T01:29:00.704Z,102118
2016-11-29T01:30:00.763Z,102123
2016-11-29T01:31:00.757Z,102116
2016-11-29T01:32:00.728Z,102120
2016-11-29T01:33:00.790Z,102117
2016-11-29T01:34:00.839Z,102124
2016-11-29T01:35:00.869Z,102119
2016-11-29T01:35:59.571Z,102126
2016-11-29T01:36:59.684Z,102116
2016-11-29T01:38:01.090Z,102110
2016-11-29T01:38:59.771Z,102117
2016-11-29T01:40:01.249Z,102122
2016-11-29T01:40:59.961Z,102120
2016-11-29T01:42:01.368Z,102108
2016-11-29T01:43:01.458Z,102122
2016-11-29T01:44:00.054Z,102121
2016-11-29T01:45:00.107Z,102119
2016-11-29T01:46:01.527Z,102105
2016-11-29T01:47:00.246Z,102112
2016-11-29T01:48:00.291Z,102108
2016-11-29T01:49:01.639Z,102108
2016-11-29T01:50:01.724Z,102110
2016-11-29T01:51:00.408Z,102110
2016-11-29T01:52:00.481Z,102112
2016-11-29T01:53:01.943Z,102109
2016-11-29T01:54:00.617Z,102115
2016-11-29T01:55:02.036Z,102115
2016-11-29T01:56:00.681Z,102115
2016-11-29T01:57:00.766Z,102105
2016-11-29T01:58:02.123Z,102107
2016-11-29T01:59:00.857Z,102101
2016-11-29T02:00:00.861Z,102100
2016-11-29T02:01:02.269Z,102100
2016-11-29T02:02:01.015Z,102099
2016-11-29T02:03:01.095Z,102095
2016-11-29T02:04:01.144Z,102102
2016-11-29T02:05:01.082Z,102101
2016-11-29T02:06:02.424Z,102096
2016-11-29T02:07:02.464Z,102095
2016-11-29T02:08:02.527Z,102094
2016-11-29T02:09:01.278Z,102092
2016-11-29T02:10:02.674Z,102093
2016-11-29T02:11:02.639Z,102094
2016-11-29T02:12:01.431Z,102092
2016-11-29T02:13:02.867Z,102095
2016-11-29T02:14:01.576Z,102094
2016-11-29T02:15:01.654Z,102091
2016-11-29T02:16:01.650Z,102097
2016-11-29T02:17:01.685Z,102094
2016-11-29T02:18:03.096Z,102091
2016-11-29T02:19:01.751Z,102090
2016-11-29T02:20:01.864Z,102084
2016-11-29T02:21:03.151Z,102089
2016-11-29T02:22:03.204Z,102089
2016-11-29T02:23:03.178Z,102086
2016-11-29T02:24:01.837Z,102088
2016-11-29T02:25:03.271Z,102085
2016-11-29T02:26:03.370Z,102086
2016-11-29T02:27:02.025Z,102084
2016-11-29T02:28:02.053Z,102083
2016-11-29T02:29:02.119Z,102085
2016-11-29T02:30:03.521Z,102082
2016-11-29T02:31:03.543Z,102075
2016-11-29T02:32:02.328Z,102087
2016-11-29T02:33:03.692Z,102084
2016-11-29T02:34:02.419Z,102081
2016-11-29T02:35:03.715Z,102079
2016-11-29T02:36:03.780Z,102078
2016-11-29T02:37:02.490Z,102081
2016-11-29T02:38:02.528Z,102084
2016-11-29T02:39:02.566Z,102084
2016-11-29T02:40:03.966Z,102081
2016-11-29T02:41:02.684Z,102088
2016-11-29T02:42:02.799Z,102087
2016-11-29T02:43:02.793Z,102085
2016-11-29T02:44:02.891Z,102081
2016-11-29T02:45:04.281Z,102085
2016-11-29T02:46:03.041Z,102077
2016-11-29T02:47:03.018Z,102087
2016-11-29T02:48:03.031Z,102086
2016-11-29T02:49:03.030Z,102086
2016-11-29T02:50:03.098Z,102087
2016-11-29T02:51:03.143Z,102083
2016-11-29T02:52:04.534Z,102084
2016-11-29T02:53:04.498Z,102080
2016-11-29T02:54:03.321Z,102081
2016-11-29T02:55:04.597Z,102081
2016-11-29T02:56:04.630Z,102077
2016-11-29T02:57:03.270Z,102076
2016-11-29T02:58:04.675Z,102078
2016-11-29T02:59:04.796Z,102077
2016-11-29T03:00:03.549Z,102079
2016-11-29T03:01:03.579Z,102078
2016-11-29T03:02:04.912Z,102077
2016-11-29T03:03:05.028Z,102077
2016-11-29T08:20:45.383Z,102243
2016-11-29T08:21:46.748Z,102245
2016-11-29T08:22:46.835Z,102247
2016-11-29T08:23:47.848Z,102254
2016-11-29T08:24:45.527Z,102245
2016-11-29T08:25:45.493Z,102241
2016-11-29T08:26:46.082Z,102241
2016-11-29T08:27:45.519Z,102242
2016-11-29T08:28:47.026Z,102253
2016-11-29T08:29:46.349Z,102250
2016-11-29T08:30:45.779Z,102258
2016-11-29T08:31:49.041Z,102260
2016-11-29T08:32:47.882Z,102245
2016-11-29T08:33:47.854Z,102259
2016-11-29T08:34:46.636Z,102252
2016-11-29T08:35:47.920Z,102254
2016-11-29T08:36:48.167Z,102255
2016-11-29T08:37:46.612Z,102252
2016-11-29T08:38:46.148Z,102261
2016-11-29T08:39:48.009Z,102259
2016-11-29T08:40:46.846Z,102257
2016-11-29T08:41:46.801Z,102259
2016-11-29T08:42:46.903Z,102261
2016-11-29T08:43:46.303Z,102249
2016-11-29T08:44:47.673Z,102254
2016-11-29T08:45:46.288Z,102262
2016-11-29T08:46:46.367Z,102245
2016-11-29T08:47:47.865Z,102252
2016-11-29T08:48:47.234Z,102248
2016-11-29T08:49:48.759Z,102257
2016-11-29T08:50:48.051Z,102253
2016-11-29T08:51:48.853Z,102260
2016-11-29T08:52:49.302Z,102258
2016-11-29T08:53:47.457Z,102260
2016-11-29T08:54:48.287Z,102261
2016-11-29T08:55:48.982Z,102261
2016-11-29T08:56:48.500Z,102255
2016-11-29T08:57:47.178Z,102254
2016-11-29T08:58:49.773Z,102256
2016-11-29T08:59:47.178Z,102255
2016-11-29T09:00:49.269Z,102259
2016-11-29T09:01:50.696Z,102197
2016-11-29T09:02:49.426Z,102260
2016-11-29T09:03:49.229Z,102258
2016-11-29T09:04:55.203Z,102263
2016-11-29T09:05:49.001Z,102258
2016-11-29T09:06:47.596Z,102261
2016-11-29T09:07:48.398Z,102260
2016-11-29T09:08:51.800Z,102272
2016-11-29T09:09:47.807Z,102253
2016-11-29T09:10:50.818Z,102266
2016-11-29T09:11:48.464Z,102268
2016-11-29T09:12:49.856Z,102267
2016-11-29T09:13:47.914Z,102265
2016-11-29T09:14:49.948Z,102265
2016-11-29T09:15:52.364Z,102269
2016-11-29T09:16:49.185Z,102260
2016-11-29T09:17:49.130Z,102269
2016-11-29T09:18:48.056Z,102270
2016-11-29T09:19:49.555Z,102274
2016-11-29T09:20:48.142Z,102276
2016-11-29T09:21:49.548Z,102277
2016-11-29T09:22:48.913Z,102276
2016-11-29T09:23:49.052Z,102275
2016-11-29T09:24:50.326Z,102275
2016-11-29T09:25:49.751Z,102284
2016-11-29T09:26:51.440Z,102275
2016-11-29T09:27:48.462Z,102277
2016-11-29T09:28:48.559Z,102285
2016-11-29T09:29:49.214Z,102276
2016-11-29T09:30:50.060Z,102286
2016-11-29T09:31:50.577Z,102275
2016-11-29T09:32:50.171Z,102277
2016-11-29T09:33:50.223Z,102280
2016-11-29T09:34:50.834Z,102281
2016-11-29T09:35:54.033Z,102279
2016-11-29T09:36:50.349Z,102276
2016-11-29T09:37:49.045Z,102277
2016-11-29T09:38:51.588Z,102282
2016-11-29T09:39:49.151Z,102281
2016-11-29T09:40:49.773Z,102281
2016-11-29T09:41:49.259Z,102281
2016-11-29T09:42:51.249Z,102278
2016-11-29T09:43:50.633Z,102282
2016-11-29T09:44:49.390Z,102273
2016-11-29T09:45:49.409Z,102271
2016-11-29T09:46:49.414Z,102280
2016-11-29T09:47:50.844Z,102276
2016-11-29T09:48:49.545Z,102278
2016-11-29T09:49:50.155Z,102279
2016-11-29T09:50:51.539Z,102279
2016-11-29T09:51:50.913Z,102286
2016-11-29T09:52:51.104Z,102280
2016-11-29T09:53:50.737Z,102274
2016-11-29T09:54:49.777Z,102280
2016-11-29T09:55:49.856Z,102281
2016-11-29T09:56:51.255Z,102281
2016-11-29T09:57:50.625Z,102284
2016-11-29T09:58:52.072Z,102285
2016-11-29T09:59:50.777Z,102293
2016-11-29T10:00:50.137Z,102276
2016-11-29T10:01:53.456Z,102289
2016-11-29T10:02:52.161Z,102285
2016-11-29T10:03:50.339Z,102285
2016-11-29T10:04:53.001Z,102287
2016-11-29T10:05:50.520Z,102287
2016-11-29T10:06:53.780Z,102276
2016-11-29T10:07:52.489Z,102289
2016-11-29T10:08:51.983Z,102289
2016-11-29T10:09:52.695Z,102290
2016-11-29T10:10:52.004Z,102285
2016-11-29T10:11:50.863Z,102288
2016-11-29T10:12:52.322Z,102286
2016-11-29T10:13:51.574Z,102287
2016-11-29T10:14:53.028Z,102284
2016-11-29T10:15:52.454Z,102286
2016-11-29T10:16:54.838Z,102287
2016-11-29T10:17:53.227Z,102282
2016-11-29T10:18:52.976Z,102278
2016-11-29T10:19:54.172Z,102286
2016-11-29T10:20:54.516Z,102286
2016-11-29T10:21:54.099Z,102274
2016-11-29T10:22:55.536Z,102283
2016-11-29T10:23:55.737Z,102283
2016-11-29T10:24:54.185Z,102279
2016-11-29T10:25:53.005Z,102275
2016-11-29T10:26:51.798Z,102272
2016-11-29T10:27:52.439Z,102269
2016-11-29T10:28:51.849Z,102270
2016-11-29T10:29:53.742Z,102276
2016-11-29T10:30:54.043Z,102275
2016-11-29T10:31:54.330Z,102276
2016-11-29T10:32:54.471Z,102277
2016-11-29T10:33:54.277Z,102278
2016-11-29T10:34:53.557Z,102269
2016-11-29T10:35:52.239Z,102271
2016-11-29T10:36:54.265Z,102260
2016-11-29T10:37:53.593Z,102268
2016-11-29T10:38:53.598Z,102262
2016-11-29T10:39:55.812Z,102261
2016-11-29T10:40:54.421Z,102261
2016-11-29T10:41:55.047Z,102261
2016-11-29T10:42:52.563Z,102257
2016-11-29T10:43:55.281Z,102260
2016-11-29T10:44:53.228Z,102258
2016-11-29T10:45:53.930Z,102260
2016-11-29T10:46:53.220Z,102260
2016-11-29T10:47:55.329Z,102251
2016-11-29T10:48:52.650Z,102259
2016-11-29T10:49:53.759Z,102256
2016-11-29T10:50:52.742Z,102253
2016-11-29T10:51:53.640Z,102256
2016-11-29T10:52:55.491Z,102248
2016-11-29T10:53:55.592Z,102251
2016-11-29T10:54:55.083Z,102247
2016-11-29T10:55:56.609Z,102243
2016-11-29T10:56:54.886Z,102247
2016-11-29T10:57:53.690Z,102248
2016-11-29T10:58:55.235Z,102248
2016-11-29T10:59:53.794Z,102246
2016-11-29T11:00:53.214Z,102243
2016-11-29T11:01:53.824Z,102238
2016-11-29T11:02:54.632Z,102237
2016-11-29T11:03:56.494Z,102239
2016-11-29T11:04:53.897Z,102235
2016-11-29T11:05:56.173Z,102232
2016-11-29T11:06:56.201Z,102233
2016-11-29T11:07:56.045Z,102232
2016-11-29T11:08:56.814Z,102233
2016-11-29T11:10:00.143Z,102231
2016-11-29T11:10:54.189Z,102227
2016-11-29T11:11:55.590Z,102226
2016-11-29T11:12:54.136Z,102227
2016-11-29T11:13:55.534Z,102229
2016-11-29T11:14:55.045Z,102233
2016-11-29T11:15:54.285Z,102229
2016-11-29T11:16:55.176Z,102229
2016-11-29T11:17:56.481Z,102225
2016-11-29T11:18:54.515Z,102226
2016-11-29T11:19:56.002Z,102225
2016-11-29T11:20:55.344Z,102224
2016-11-29T11:21:54.053Z,102226
2016-11-29T11:22:54.672Z,102219
2016-11-29T11:23:55.372Z,102221
2016-11-29T11:24:55.293Z,102215
2016-11-29T11:25:56.103Z,102211
2016-11-29T11:26:56.093Z,102216
2016-11-29T11:27:56.806Z,102214
2016-11-29T11:28:54.264Z,102208
2016-11-29T11:29:56.383Z,102212
2016-11-29T11:30:56.722Z,102210
2016-11-29T11:31:54.969Z,102205
2016-11-29T11:32:55.742Z,102213
2016-11-29T11:33:54.451Z,102209
2016-11-29T11:34:55.096Z,102211
2016-11-29T11:35:55.794Z,102210
2016-11-29T11:36:55.881Z,102209
2016-11-29T11:37:55.378Z,102211
2016-11-29T11:38:55.976Z,102208
2016-11-29T11:39:56.192Z,102207
2016-11-29T11:40:57.892Z,102212
2016-11-29T11:41:56.334Z,102213
2016-11-29T11:42:55.655Z,102213
2016-11-29T11:43:56.487Z,102213
2016-11-29T11:44:56.498Z,102217
2016-11-29T11:45:57.091Z,102214
2016-11-29T11:46:57.146Z,102218
2016-11-29T11:47:59.480Z,102218
2016-11-29T11:48:56.707Z,102212
2016-11-29T11:49:56.223Z,102214
2016-11-29T11:50:57.993Z,102216
2016-11-29T11:52:00.418Z,102209
2016-11-29T11:52:56.128Z,102210
2016-11-29T11:53:56.783Z,102207
2016-11-29T11:54:58.713Z,102206
2016-11-29T11:55:58.505Z,102206
2016-11-29T11:56:58.629Z,102208
2016-11-29T11:58:00.567Z,102210
2016-11-29T11:58:56.586Z,102208
2016-11-29T11:59:58.368Z,102204
2016-11-29T12:01:01.845Z,102201
2016-11-29T12:02:04.331Z,102198
2016-11-29T12:03:00.374Z,102194
2016-11-29T12:03:59.089Z,102198
2016-11-29T12:05:04.242Z,102191
2016-11-29T12:06:02.559Z,102197
2016-11-29T12:07:00.992Z,102197
2016-11-29T12:07:57.671Z,102208
2016-11-29T12:09:01.402Z,102208
2016-11-29T12:10:05.140Z,102199
2016-11-29T12:11:01.801Z,102197
2016-11-29T12:12:01.996Z,102199
2016-11-29T12:13:02.119Z,102205
2016-11-29T12:13:59.925Z,102207
2016-11-29T12:15:00.749Z,102200
2016-11-29T12:15:57.524Z,102203
2016-11-29T12:16:59.483Z,102204
2016-11-29T12:17:56.865Z,102199
2016-11-29T12:18:59.086Z,102196
2016-11-29T12:19:58.795Z,102199
2016-11-29T12:20:57.064Z,102193
2016-11-29T12:21:57.729Z,102202
2016-11-29T12:22:57.175Z,102202
2016-11-29T12:23:57.303Z,102205
2016-11-29T12:24:57.368Z,102201
2016-11-29T12:25:58.082Z,102199
2016-11-29T12:27:02.361Z,102198
2016-11-29T12:27:57.516Z,102196
2016-11-29T12:28:59.662Z,102195
2016-11-29T12:30:03.612Z,102194
2016-11-29T12:31:03.529Z,102195
2016-11-29T12:31:59.665Z,102189
2016-11-29T12:33:00.887Z,102196
2016-11-29T12:34:04.986Z,102196
2016-11-29T12:35:04.154Z,102200
2016-11-29T12:35:58.846Z,102189
2016-11-29T12:37:02.291Z,102192
2016-11-29T12:38:00.119Z,102199
2016-11-29T12:39:00.780Z,102197
2016-11-29T12:40:04.390Z,102190
2016-11-29T12:41:03.468Z,102188
2016-11-29T12:42:03.344Z,102180
2016-11-29T12:43:04.037Z,102192
2016-11-29T12:44:06.325Z,102191
2016-11-29T12:45:00.567Z,102184
2016-11-29T12:46:00.148Z,102187
2016-11-29T12:47:05.384Z,102182
2016-11-29T12:48:04.893Z,102185
2016-11-29T12:49:04.416Z,102171
2016-11-29T12:49:59.618Z,102179
2016-11-29T12:51:05.276Z,102177
2016-11-29T12:52:01.192Z,102173
2016-11-29T12:53:02.295Z,102179
2016-11-29T12:54:07.829Z,102176
2016-11-29T12:55:02.776Z,102170
2016-11-29T12:56:00.623Z,102174
2016-11-29T12:57:02.006Z,102170
2016-11-29T12:58:02.082Z,102160
2016-11-29T12:59:01.980Z,102165
2016-11-29T13:00:01.465Z,102171
2016-11-29T13:00:59.563Z,102167
2016-11-29T13:02:01.765Z,102170
2016-11-29T13:03:03.774Z,102165
2016-11-29T13:04:01.519Z,102168
2016-11-29T13:05:04.418Z,102170
2016-11-29T13:06:01.188Z,102159
2016-11-29T13:07:02.752Z,102151
2016-11-29T13:08:04.293Z,102161
2016-11-29T13:09:01.223Z,102161
2016-11-29T13:10:00.559Z,102159
2016-11-29T13:11:01.994Z,102143
2016-11-29T13:12:00.765Z,102161
2016-11-29T13:13:02.945Z,102160
2016-11-29T13:14:02.238Z,102163
2016-11-29T13:15:05.881Z,102166
2016-11-29T13:16:00.872Z,102165
2016-11-29T13:17:03.175Z,102162
2016-11-29T13:18:03.126Z,102166
2016-11-29T13:19:03.526Z,102163
2016-11-29T13:20:02.402Z,102163
2016-11-29T13:21:00.506Z,102165
2016-11-29T13:22:02.534Z,102160
2016-11-29T13:23:02.855Z,102163
2016-11-29T13:24:01.815Z,102160
2016-11-29T13:25:04.180Z,102162
2016-11-29T13:26:02.057Z,102154
2016-11-29T13:27:02.996Z,102164
2016-11-29T13:28:03.612Z,102162
2016-11-29T13:29:01.333Z,102159
2016-11-29T13:30:02.948Z,102158
2016-11-29T13:31:02.946Z,102164
2016-11-29T13:32:03.951Z,102165
2016-11-29T13:33:02.306Z,102165
2016-11-29T13:34:03.866Z,102159
2016-11-29T13:35:06.799Z,102154
2016-11-29T13:36:01.760Z,102160
2016-11-29T13:37:01.982Z,102159
2016-11-29T13:38:05.218Z,102156
2016-11-29T13:39:01.369Z,102162
2016-11-29T13:40:05.241Z,102156
2016-11-29T13:41:03.365Z,102154
2016-11-29T13:42:02.800Z,102153
2016-11-29T13:43:02.057Z,102153
2016-11-29T13:44:02.217Z,102151
2016-11-29T13:45:03.451Z,102152
2016-11-29T13:46:03.984Z,102150
2016-11-29T13:47:01.612Z,102150
2016-11-29T13:48:02.841Z,102151
2016-11-29T13:49:04.253Z,102151
2016-11-29T13:50:03.928Z,102154
2016-11-29T13:51:05.257Z,102153
2016-11-29T13:52:05.204Z,102157
2016-11-29T13:53:05.985Z,102155
2016-11-29T13:54:09.050Z,102154
2016-11-29T13:55:13.389Z,102151
2016-11-29T13:56:10.134Z,102149
2016-11-29T13:57:12.232Z,102153
2016-11-29T13:58:10.090Z,102147
2016-11-29T13:59:13.273Z,102155
2016-11-29T14:00:10.544Z,102152
2016-11-29T14:01:14.548Z,102150
2016-11-29T14:02:12.651Z,102148
2016-11-29T14:03:13.032Z,102152
2016-11-29T14:05:13.072Z,102152
2016-11-29T14:06:12.924Z,102148
2016-11-29T14:07:10.459Z,102153
2016-11-29T14:08:09.910Z,102152
2016-11-29T14:09:10.751Z,102154
2016-11-29T14:11:15.007Z,102156
2016-11-29T14:12:12.682Z,102146
2016-11-29T14:13:14.476Z,102154
2016-11-29T14:14:09.169Z,102156
2016-11-29T14:16:13.060Z,102154
2016-11-29T14:17:14.578Z,102154
2016-11-29T14:18:14.773Z,102156
2016-11-29T14:19:09.520Z,102153
2016-11-29T14:20:07.185Z,102147
2016-11-29T14:21:08.223Z,102156
2016-11-29T14:22:09.613Z,102158
2016-11-29T14:23:07.823Z,102155
2016-11-29T14:24:09.878Z,102156
2016-11-29T14:25:14.037Z,102148
2016-11-29T14:26:10.609Z,102157
2016-11-29T14:27:10.759Z,102149
2016-11-29T14:28:20.145Z,102162
2016-11-29T14:29:09.593Z,102156
2016-11-29T14:31:08.610Z,102157
2016-11-29T14:32:12.262Z,102160
2016-11-29T14:33:10.931Z,102163
2016-11-29T14:34:11.663Z,102154
2016-11-29T14:35:17.140Z,102154
2016-11-29T14:36:11.596Z,102149
2016-11-29T14:37:13.379Z,102151
2016-11-29T14:38:13.609Z,102150
2016-11-29T14:39:11.795Z,102153
2016-11-29T14:40:15.621Z,102144
2016-11-29T14:41:10.957Z,102150
2016-11-29T14:42:09.437Z,102149
2016-11-29T14:43:09.810Z,102150
2016-11-29T14:44:08.739Z,102144
2016-11-29T14:45:11.722Z,102148
2016-11-29T14:46:06.545Z,102145
2016-11-29T14:47:10.505Z,102147
2016-11-29T14:48:06.203Z,102146
2016-11-29T14:49:08.629Z,102149
2016-11-29T14:50:05.632Z,102146
2016-11-29T14:51:05.861Z,102146
2016-11-29T14:52:07.175Z,102135
2016-11-29T14:53:06.581Z,102143
2016-11-29T14:54:06.638Z,102148
2016-11-29T14:55:05.373Z,102144
2016-11-29T14:56:05.348Z,102145
2016-11-29T14:57:06.678Z,102144
2016-11-29T14:58:05.361Z,102141
2016-11-29T14:59:07.410Z,102141
2016-11-29T15:00:06.075Z,102134
2016-11-29T15:01:05.488Z,102141
2016-11-29T15:02:05.570Z,102137
2016-11-29T15:03:06.991Z,102139
2016-11-29T15:04:09.388Z,102137
2016-11-29T15:05:07.091Z,102138
2016-11-29T15:06:07.828Z,102133
2016-11-29T15:07:07.787Z,102141
2016-11-29T15:08:06.580Z,102131
2016-11-29T15:09:07.273Z,102128
2016-11-29T15:10:08.099Z,102129
2016-11-29T15:11:06.221Z,102126
2016-11-29T15:12:06.805Z,102123
2016-11-29T15:13:07.593Z,102124
2016-11-29T15:14:06.215Z,102119
2016-11-29T15:15:06.301Z,102114
2016-11-29T15:16:07.769Z,102117
2016-11-29T15:17:06.496Z,102119
2016-11-29T15:18:07.870Z,102121
2016-11-29T15:19:06.960Z,102120
2016-11-29T15:20:09.334Z,102117
2016-11-29T15:21:08.246Z,102117
2016-11-29T15:22:08.429Z,102109
2016-11-29T15:23:08.108Z,102108
2016-11-29T15:24:07.875Z,102113
2016-11-29T15:25:06.957Z,102114
2016-11-29T15:26:08.312Z,102114
2016-11-29T15:27:09.918Z,102114
2016-11-29T15:28:08.386Z,102112
2016-11-29T15:29:08.479Z,102106
2016-11-29T15:30:08.465Z,102125
2016-11-29T15:31:07.236Z,102117
2016-11-29T15:32:08.677Z,102112
2016-11-29T15:33:08.698Z,102113
2016-11-29T15:34:07.395Z,102112
2016-11-29T15:35:07.422Z,102112
2016-11-29T15:36:08.906Z,102102
2016-11-29T15:37:08.788Z,102111
2016-11-29T15:38:08.833Z,102109
2016-11-29T15:39:07.588Z,102097
2016-11-29T15:40:09.053Z,102106
2016-11-29T15:41:09.072Z,102098
2016-11-29T15:42:07.759Z,102107
2016-11-29T15:43:09.026Z,102111
2016-11-29T15:44:08.381Z,102112
2016-11-29T15:45:07.918Z,102104
2016-11-29T15:46:07.930Z,102109
2016-11-29T15:47:11.313Z,102111
2016-11-29T15:48:08.133Z,102104
2016-11-29T15:49:09.547Z,102111
2016-11-29T15:50:08.199Z,102104
2016-11-29T15:51:10.926Z,102111
2016-11-29T15:52:08.408Z,102114
2016-11-29T15:53:09.830Z,102105
2016-11-29T15:54:09.934Z,102111
2016-11-29T15:55:10.539Z,102117
2016-11-29T15:56:09.947Z,102113
2016-11-29T15:57:10.012Z,102112
2016-11-29T15:58:08.706Z,102111
2016-11-29T15:59:10.043Z,102114
2016-11-29T16:00:10.143Z,102114
2016-11-29T16:01:10.261Z,102115
2016-11-29T16:02:10.279Z,102109
2016-11-29T16:03:10.244Z,102117
2016-11-29T16:04:09.062Z,102116
2016-11-29T16:05:09.084Z,102116
2016-11-29T16:06:10.487Z,102124
2016-11-29T16:07:10.480Z,102122
2016-11-29T16:08:09.739Z,102124
2016-11-29T16:09:10.622Z,102121
2016-11-29T16:10:10.692Z,102122
2016-11-29T16:11:10.711Z,102122
2016-11-29T16:12:10.717Z,102125
2016-11-29T16:13:10.816Z,102124
2016-11-29T16:14:09.553Z,102123
2016-11-29T16:15:10.892Z,102116
2016-11-29T16:16:09.502Z,102123
2016-11-29T16:17:10.297Z,102125
2016-11-29T16:18:10.992Z,102125
2016-11-29T16:19:09.642Z,102114
2016-11-29T16:20:10.760Z,102126
2016-11-29T16:21:10.287Z,102118
2016-11-29T16:22:11.218Z,102124
2016-11-29T16:23:09.916Z,102126
2016-11-29T16:24:11.976Z,102124
2016-11-29T16:25:11.345Z,102126
2016-11-29T16:26:11.383Z,102123
2016-11-29T16:27:11.472Z,102125
2016-11-29T16:28:11.418Z,102122
2016-11-29T16:29:10.793Z,102115
2016-11-29T16:30:11.555Z,102123
2016-11-29T16:31:10.283Z,102120
2016-11-29T16:32:11.632Z,102122
2016-11-29T16:33:10.325Z,102113
2016-11-29T16:34:11.670Z,102120
2016-11-29T16:35:11.639Z,102121
2016-11-29T16:36:10.949Z,102111
2016-11-29T16:37:11.752Z,102121
2016-11-29T16:38:12.570Z,102109
2016-11-29T16:39:12.539Z,102115
2016-11-29T16:40:11.223Z,102109
2016-11-29T16:41:10.636Z,102107
2016-11-29T16:42:11.993Z,102105
2016-11-29T16:43:12.099Z,102099
2016-11-29T16:44:10.860Z,102102
2016-11-29T16:45:12.316Z,102107
2016-11-29T16:46:10.993Z,102105
2016-11-29T16:47:14.332Z,102105
2016-11-29T16:48:12.493Z,102107
2016-11-29T16:49:11.220Z,102108
2016-11-29T16:50:11.545Z,102105
2016-11-29T16:51:12.610Z,102106
2016-11-29T16:52:12.065Z,102104
2016-11-29T16:53:11.650Z,102102
2016-11-29T16:54:12.859Z,102112
2016-11-29T16:55:13.522Z,102109
2016-11-29T16:56:13.044Z,102114
2016-11-29T16:57:11.483Z,102110
2016-11-29T16:58:12.877Z,102105
2016-11-29T16:59:13.795Z,102113
2016-11-29T17:00:11.606Z,102118
2016-11-29T17:01:13.036Z,102116
2016-11-29T17:02:13.073Z,102117
2016-11-29T17:03:13.120Z,102119
2016-11-29T17:04:13.248Z,102120
2016-11-29T17:05:13.829Z,102113
2016-11-29T17:06:13.952Z,102119
2016-11-29T17:07:11.994Z,102114
2016-11-29T17:08:12.012Z,102121
2016-11-29T17:09:12.780Z,102109
2016-11-29T17:10:12.039Z,102113
2016-11-29T17:11:13.494Z,102105
2016-11-29T17:12:13.580Z,102110
2016-11-29T17:13:12.855Z,102110
2016-11-29T17:14:12.368Z,102109
2016-11-29T17:15:13.676Z,102109
2016-11-29T17:16:13.760Z,102108
2016-11-29T17:17:12.440Z,102108
2016-11-29T17:18:12.447Z,102105
2016-11-29T17:19:14.493Z,102109
2016-11-29T17:20:13.154Z,102108
2016-11-29T17:21:13.030Z,102115
2016-11-29T17:22:13.543Z,102113
2016-11-29T17:23:12.510Z,102114
2016-11-29T17:24:13.987Z,102110
2016-11-29T17:25:12.696Z,102116
2016-11-29T17:26:12.720Z,102114
2016-11-29T17:27:12.774Z,102122
2016-11-29T17:28:12.724Z,102119
2016-11-29T17:29:14.119Z,102122
2016-11-29T17:30:14.246Z,102122
2016-11-29T17:31:14.291Z,102124
2016-11-29T17:32:12.940Z,102124
2016-11-29T17:33:12.955Z,102123
2016-11-29T17:34:13.020Z,102122
2016-11-29T17:35:13.005Z,102116
2016-11-29T17:36:14.944Z,102118
2016-11-29T17:37:13.114Z,102118
2016-11-29T17:38:13.088Z,102119
2016-11-29T17:39:13.167Z,102110
2016-11-29T17:40:13.265Z,102118
2016-11-29T17:41:13.303Z,102115
2016-11-29T17:42:14.725Z,102122
2016-11-29T17:43:13.358Z,102117
2016-11-29T17:44:14.784Z,102120
2016-11-29T17:45:13.423Z,102123
2016-11-29T17:46:13.485Z,102130
2016-11-29T17:47:15.560Z,102124
2016-11-29T17:48:13.645Z,102115
2016-11-29T17:49:13.685Z,102121
2016-11-29T17:50:13.788Z,102114